Wetterdaten der Wetterstation 59969 Hallenberg

Letzte Wetterlage 02.07.2015 19:50
Wetterdiagramm
Tabellarische Darstellung
Datum Temperatur Windchill Feuchte Luftdruck Windrichtung Windstärke Niederschlag
02.07.2015 19:50 33,8 °C 33,8 °C 34 % 1019,4 hPa 0 l/m²
02.07.2015 19:29 33,8 °C 33,8 °C 33 % 1019,4 hPa 0 l/m²
02.07.2015 19:09 34,0 °C 34,0 °C 33 % 1019,4 hPa 0 l/m²
02.07.2015 18:48 34,1 °C 34,1 °C 33 % 1019,4 hPa 0 l/m²
02.07.2015 18:27 34,6 °C 34,6 °C 33 % 1019,4 hPa 0 l/m²
02.07.2015 18:06 33,3 °C 33,3 °C 35 % 1019,4 hPa 0 l/m²
02.07.2015 17:45 33,2 °C 33,2 °C 35 % 1019,4 hPa 0 l/m²
02.07.2015 17:24 32,9 °C 32,9 °C 35 % 1019,4 hPa 0 l/m²
02.07.2015 17:03 32,7 °C 32,7 °C 35 % 1019,4 hPa 0 l/m²
02.07.2015 16:43 32,6 °C 32,6 °C 36 % 1019,4 hPa 0 l/m²
02.07.2015 16:22 32,9 °C 32,9 °C 35 % 1019,4 hPa 0 l/m²
02.07.2015 16:01 32,8 °C 32,8 °C 35 % 1019,4 hPa 0 l/m²
02.07.2015 15:41 32,5 °C 32,5 °C 36 % 1019,4 hPa 0 l/m²
02.07.2015 15:20 32,3 °C 32,3 °C 37 % 1019,4 hPa 0 l/m²
02.07.2015 14:59 32,4 °C 32,4 °C 38 % 1019,4 hPa 0 l/m²
02.07.2015 14:38 31,8 °C 31,8 °C 37 % 1019,7 hPa 0 l/m²
02.07.2015 14:17 31,9 °C 31,9 °C 38 % 1019,4 hPa 0 l/m²
02.07.2015 13:56 31,0 °C 31,0 °C 41 % 1019,4 hPa 0 l/m²
02.07.2015 13:35 31,2 °C 31,2 °C 41 % 1020,4 hPa 0 l/m²
02.07.2015 13:15 30,6 °C 30,6 °C 42 % 1020,4 hPa 0 l/m²
02.07.2015 12:54 30,4 °C 30,4 °C 42 % 1020,4 hPa 0 l/m²
02.07.2015 12:33 30,0 °C 30,0 °C 43 % 1020,4 hPa 0 l/m²
02.07.2015 12:12 29,5 °C 29,5 °C 44 % 1020,4 hPa 0 l/m²
02.07.2015 11:52 29,1 °C 29,1 °C 44 % 1020,4 hPa 0 l/m²
02.07.2015 11:31 28,8 °C 28,8 °C 45 % 1020,4 hPa 0 l/m²
Neue Wetterwarnung

Neue Niederschlagsmeldung
Neue Meldung
Regen Liveticker
    sehr starker Regen/Gewitter
    starker Regen/Gewitter
    mäßiger bis starker Regen
    mäßiger Regen
    leichter bis mäßiger Regen
    kein Regen